Time;durP1;ratioP1;P1;durP2;ratioP2;P2;SDS_P1;SDS_P2;PMS_P1;PMS_P2;Temp;Humidity;BMP_temperature;BMP_pressure;BME280_temperature;BME280_humidity;BME280_pressure;Samples;Min_cycle;Max_cycle;Signal;HPM_P1;HPM_P2
2023/10/13 00:00:36;;;;;;;;;;;;;;;21.32;80.69;101190.97;4990513;28;20046;-50
2023/10/13 00:03:05;;;;;;;6.90;2.75;;;;;;;21.25;80.96;101184.09;4991082;28;19960;-51
2023/10/13 00:05:31;;;;;;;10.50;2.75;;;;;;;21.30;80.82;101184.84;4991263;28;20034;-49
2023/10/13 00:08:01;;;;;;;8.15;3.00;;;;;;;21.21;81.04;101174.47;4990807;28;20475;-48
2023/10/13 00:10:29;;;;;;;10.32;3.40;;;;;;;21.08;81.61;101175.66;4990109;28;20461;-45
2023/10/13 00:13:06;;;;;;;7.35;3.42;;;;;;;21.10;81.51;101176.50;4990321;28;20409;-50
2023/10/13 00:15:38;;;;;;;9.88;3.67;;;;;;;21.24;81.26;101166.44;4990156;28;20048;-45
2023/10/13 00:18:12;;;;;;;9.88;3.80;;;;;;;21.22;81.56;101170.06;4990662;28;20041;-50
2023/10/13 00:20:47;;;;;;;9.45;4.00;;;;;;;21.23;81.53;101159.38;4990467;28;20038;-45
2023/10/13 00:23:13;;;;;;;10.93;4.05;;;;;;;21.20;81.28;101153.31;4988665;28;20046;-45
2023/10/13 00:25:49;;;;;;;10.98;4.25;;;;;;;21.13;81.54;101167.59;4991146;28;20097;-46
2023/10/13 00:28:23;;;;;;;9.02;3.97;;;;;;;21.20;81.47;101153.31;4990236;28;20053;-46
2023/10/13 00:30:51;;;;;;;8.60;3.63;;;;;;;21.19;81.26;101147.13;4991292;28;20050;-46
2023/10/13 00:33:20;;;;;;;8.55;3.65;;;;;;;21.29;80.53;101161.88;4990160;28;20034;-48
2023/10/13 00:35:48;;;;;;;6.85;3.63;;;;;;;21.25;80.96;101148.75;4990423;28;20041;-44
2023/10/13 00:38:13;;;;;;;6.95;4.10;;;;;;;21.25;81.18;101144.31;4990025;28;20092;-44
2023/10/13 00:45:56;;;;;;;11.13;5.50;;;;;;;21.26;81.02;101137.22;4990479;28;20030;-46
2023/10/13 00:48:29;;;;;;;13.90;5.82;;;;;;;21.28;80.66;101138.06;4989653;28;20611;-45
2023/10/13 00:50:56;;;;;;;13.43;6.40;;;;;;;21.22;80.74;101136.47;4989809;28;20534;-47
2023/10/13 00:53:25;;;;;;;13.35;6.80;;;;;;;21.13;81.50;101128.69;4989656;28;20481;-46
2023/10/13 00:55:50;;;;;;;16.40;7.38;;;;;;;21.00;81.57;101122.84;4990035;28;20489;-46
2023/10/13 00:58:21;;;;;;;15.13;7.65;;;;;;;21.17;81.45;101119.78;4989907;28;20050;-44
2023/10/13 01:00:48;;;;;;;14.70;7.57;;;;;;;21.09;81.34;101116.44;4993818;28;20049;-52
2023/10/13 01:03:14;;;;;;;16.42;7.50;;;;;;;21.23;81.18;101114.31;4993580;28;20031;-49
2023/10/13 01:05:40;;;;;;;15.02;7.30;;;;;;;21.33;80.60;101099.03;4993816;28;20091;-46
2023/10/13 01:08:10;;;;;;;12.65;7.43;;;;;;;21.14;81.49;101105.69;4993911;28;20504;-48
2023/10/13 01:10:37;;;;;;;20.45;8.10;;;;;;;21.12;81.92;101095.13;4993621;28;20042;-46
2023/10/13 01:13:04;;;;;;;16.17;8.18;;;;;;;21.11;81.77;101095.16;4993962;28;20042;-47
2023/10/13 01:15:30;;;;;;;16.20;7.75;;;;;;;21.13;81.89;101088.94;4993402;28;20647;-47
2023/10/13 01:18:13;;;;;;;17.33;7.90;;;;;;;21.14;81.80;101087.16;4993731;28;20038;-49
2023/10/13 01:20:52;;;;;;;14.40;7.60;;;;;;;21.14;81.70;101088.03;4993296;28;20196;-46
2023/10/13 01:23:24;;;;;;;15.05;7.57;;;;;;;21.23;81.20;101082.47;4992748;28;20472;-47
2023/10/13 01:25:50;;;;;;;12.20;6.70;;;;;;;21.03;82.13;101077.72;4993263;28;20030;-44
2023/10/13 01:28:16;;;;;;;16.27;7.28;;;;;;;21.08;82.15;101077.56;4992774;28;20042;-47
2023/10/13 01:30:49;;;;;;;15.13;6.40;;;;;;;21.15;81.85;101072.97;4993575;28;20026;-46
2023/10/13 01:33:15;;;;;;;13.52;6.28;;;;;;;20.98;82.33;101076.09;4992530;28;20045;-48
2023/10/13 01:35:47;;;;;;;12.95;6.13;;;;;;;21.20;81.52;101073.75;4993301;28;20030;-50
2023/10/13 01:38:14;;;;;;;10.90;5.57;;;;;;;21.20;81.47;101066.69;4992710;28;20066;-45
2023/10/13 01:40:39;;;;;;;15.13;5.85;;;;;;;21.12;81.31;101060.66;4992853;28;20042;-51
2023/10/13 01:43:04;;;;;;;10.73;5.53;;;;;;;21.11;81.62;101066.00;4992924;28;20100;-47
2023/10/13 01:45:30;;;;;;;11.73;5.72;;;;;;;20.93;82.12;101062.94;4992529;28;20389;-48
2023/10/13 01:47:55;;;;;;;13.52;5.85;;;;;;;21.16;81.19;101057.06;4993034;28;20031;-45
2023/10/13 01:50:29;;;;;;;14.75;6.10;;;;;;;21.09;81.58;101059.91;4992352;28;20049;-46
2023/10/13 01:53:13;;;;;;;15.55;6.22;;;;;;;21.11;81.38;101056.28;4992819;28;20125;-47
2023/10/13 01:55:42;;;;;;;11.70;5.80;;;;;;;21.21;80.60;101041.91;4992656;28;20515;-47
2023/10/13 01:58:15;;;;;;;12.63;6.07;;;;;;;20.94;82.40;101040.81;4992767;28;20133;-48
2023/10/13 02:00:44;;;;;;;13.70;6.18;;;;;;;21.10;81.47;101037.78;4992793;28;20030;-47
2023/10/13 02:03:16;;;;;;;11.48;5.82;;;;;;;21.16;81.02;101027.03;4994328;28;20053;-45
2023/10/13 02:05:49;;;;;;;11.85;5.55;;;;;;;21.10;81.37;101029.81;4992419;28;20125;-49
2023/10/13 02:08:25;;;;;;;10.02;5.60;;;;;;;20.95;81.96;101018.72;4992400;28;20134;-47
2023/10/13 02:10:55;;;;;;;13.38;5.68;;;;;;;21.10;81.50;101016.56;4991951;28;20022;-45
2023/10/13 02:13:22;;;;;;;10.30;5.13;;;;;;;21.09;81.31;101004.22;4992123;28;20042;-48
2023/10/13 02:15:51;;;;;;;12.00;5.70;;;;;;;21.00;81.69;101006.19;4992627;28;20030;-44
2023/10/13 02:18:26;;;;;;;13.15;5.40;;;;;;;20.89;81.95;101008.28;4992267;28;20518;-47
2023/10/13 02:20:55;;;;;;;9.95;5.47;;;;;;;20.92;82.15;101002.88;4991325;28;20041;-46
2023/10/13 02:23:24;;;;;;;11.48;5.55;;;;;;;20.98;81.77;100996.56;4992270;28;20073;-45
2023/10/13 02:26:00;;;;;;;12.80;5.22;;;;;;;21.04;81.38;100991.94;4992642;28;20034;-44
2023/10/13 02:28:28;;;;;;;10.65;5.45;;;;;;;21.08;81.54;100979.50;4992460;28;20069;-50
2023/10/13 02:30:54;;;;;;;11.45;5.32;;;;;;;21.14;81.15;100979.31;4992528;28;20038;-44
2023/10/13 02:33:22;;;;;;;12.73;5.50;;;;;;;21.06;81.12;100966.28;4991660;28;20097;-46
2023/10/13 02:35:54;;;;;;;10.13;5.03;;;;;;;21.10;80.97;100963.56;4992186;28;20121;-49
2023/10/13 02:38:34;;;;;;;10.50;4.97;;;;;;;21.06;80.73;100962.75;4991640;28;20042;-47
2023/10/13 02:41:06;;;;;;;9.63;4.90;;;;;;;21.08;81.25;100954.75;4991817;28;20038;-47
2023/10/13 02:43:36;;;;;;;11.30;5.10;;;;;;;21.17;80.45;100947.44;4991570;28;20057;-46
2023/10/13 02:46:02;;;;;;;9.95;5.13;;;;;;;21.14;80.80;100950.16;4992148;28;20062;-47
2023/10/13 02:48:40;;;;;;;12.57;5.25;;;;;;;21.10;80.61;100927.31;4991284;28;20076;-48
2023/10/13 02:51:15;;;;;;;12.68;5.53;;;;;;;20.83;81.62;100918.34;4991908;28;20042;-47
2023/10/13 02:53:41;;;;;;;11.07;5.50;;;;;;;20.64;82.98;100923.28;4991604;28;20041;-48
2023/10/13 02:56:07;;;;;;;10.13;5.40;;;;;;;20.88;81.98;100926.16;4992146;28;20137;-46
2023/10/13 02:58:38;;;;;;;11.35;5.63;;;;;;;20.83;81.69;100907.75;4992543;28;20035;-46
2023/10/13 03:01:17;;;;;;;10.20;5.38;;;;;;;20.89;81.57;100907.56;4992556;28;20031;-46
2023/10/13 03:03:51;;;;;;;11.65;5.30;;;;;;;20.78;81.61;100907.00;4990407;28;20038;-46
2023/10/13 03:06:16;;;;;;;;;;;;;;;20.77;82.60;100904.41;4991821;28;20042;-46
2023/10/13 03:08:43;;;;;;;10.35;4.85;;;;;;;20.69;82.41;100880.75;4991445;28;19917;-45
2023/10/13 03:11:10;;;;;;;11.63;5.00;;;;;;;20.87;81.22;100888.19;4991634;28;20039;-48
2023/10/13 03:13:36;;;;;;;11.57;4.68;;;;;;;20.89;81.42;100878.41;4989931;28;20488;-47
2023/10/13 03:16:11;;;;;;;13.75;5.07;;;;;;;20.48;83.83;100869.00;4991582;28;20448;-45
2023/10/13 03:18:36;;;;;;;10.63;4.70;;;;;;;20.82;82.47;100853.00;4990888;28;20117;-46
2023/10/13 03:21:02;;;;;;;13.35;5.28;;;;;;;20.94;81.16;100844.69;4991503;28;20125;-46
2023/10/13 03:23:28;;;;;;;13.30;5.32;;;;;;;20.95;81.50;100840.28;4990530;28;20522;-44
2023/10/13 03:25:55;;;;;;;9.27;4.90;;;;;;;20.95;81.16;100834.97;4993431;28;20034;-44
2023/10/13 03:28:25;;;;;;;8.68;4.47;;;;;;;20.93;81.10;100821.75;4992671;28;20038;-45
2023/10/13 03:30:52;;;;;;;8.90;4.50;;;;;;;20.95;81.21;100817.28;4991204;28;20481;-46
2023/10/13 03:33:25;;;;;;;11.63;4.25;;;;;;;20.76;81.35;100812.56;4990156;28;20038;-50
2023/10/13 03:35:54;;;;;;;7.83;3.63;;;;;;;20.92;81.13;100806.75;4991218;28;20484;-46
2023/10/13 03:38:20;;;;;;;9.05;3.75;;;;;;;20.82;81.88;100793.84;4990685;28;20278;-47
2023/10/13 03:40:56;;;;;;;7.68;3.40;;;;;;;20.63;81.83;100793.53;4991180;28;20122;-44
2023/10/13 03:43:24;;;;;;;5.57;2.70;;;;;;;20.56;82.08;100795.47;4990729;28;20129;-45
2023/10/13 03:46:00;;;;;;;7.55;2.78;;;;;;;20.76;81.65;100786.94;4991186;28;20088;-46
2023/10/13 03:51:10;;;;;;;7.13;2.65;;;;;;;20.69;81.44;100785.38;4990766;28;20026;-48
2023/10/13 03:53:50;;;;;;;7.03;3.28;;;;;;;20.38;83.06;100769.53;4990455;28;20040;-46
2023/10/13 03:56:15;;;;;;;7.20;3.15;;;;;;;20.54;82.50;100772.63;4990780;28;20042;-46
2023/10/13 03:58:53;;;;;;;7.90;3.42;;;;;;;20.17;83.95;100762.16;4989826;28;20142;-45
2023/10/13 04:01:24;;;;;;;9.15;3.50;;;;;;;20.54;82.40;100768.19;4990978;28;20030;-44
2023/10/13 04:04:03;;;;;;;7.03;3.40;;;;;;;20.52;82.39;100755.88;4991181;28;20088;-49
2023/10/13 04:17:15;;;;;;;8.27;4.00;;;;;;;20.55;83.40;100730.16;4990171;28;20105;-44
2023/10/13 04:23:17;;;;;;;7.95;4.20;;;;;;;20.64;83.20;100729.91;4989853;28;20080;-46
2023/10/13 04:28:14;;;;;;;6.10;3.88;;;;;;;20.63;84.86;100719.34;4990364;28;20497;-47
2023/10/13 04:36:16;;;;;;;7.18;4.38;;;;;;;20.61;86.27;100700.00;4990574;28;20364;-46
2023/10/13 04:41:31;;;;;;;7.85;4.00;;;;;;;20.95;84.63;100700.69;4989276;28;20125;-46
2023/10/13 04:44:04;;;;;;;6.45;3.58;;;;;;;20.95;85.16;100703.31;4990296;28;20026;-44
2023/10/13 04:49:27;;;;;;;7.05;3.70;;;;;;;20.67;86.45;100700.66;4989981;28;20042;-45
2023/10/13 04:52:00;;;;;;;7.90;3.50;;;;;;;20.96;85.12;100701.53;4990338;28;20121;-45
2023/10/13 04:54:33;;;;;;;7.82;3.53;;;;;;;20.65;85.86;100691.03;4990003;28;20045;-45
2023/10/13 04:59:37;;;;;;;6.53;3.30;;;;;;;20.96;84.69;100694.47;4990134;28;20026;-46
2023/10/13 05:52:06;;;;;;;7.57;2.40;;;;;;;20.36;81.48;100608.97;4994186;28;20424;-45
2023/10/13 06:30:07;;;;;;;10.27;3.60;;;;;;;20.89;82.21;100536.56;4992365;28;20054;-51
2023/10/13 06:32:33;;;;;;;7.53;3.40;;;;;;;21.02;81.99;100537.88;4992042;28;20057;-46
2023/10/13 06:34:58;;;;;;;9.40;3.83;;;;;;;20.91;82.65;100533.88;4992068;28;20038;-48
2023/10/13 06:37:30;;;;;;;10.68;4.07;;;;;;;21.03;82.79;100523.72;4991691;28;20456;-50
2023/10/13 06:40:07;;;;;;;9.15;4.20;;;;;;;20.97;83.29;100526.59;4992132;28;20452;-50
2023/10/13 06:42:42;;;;;;;10.82;4.93;;;;;;;21.07;83.28;100524.47;4991389;28;20039;-47
2023/10/13 06:45:08;;;;;;;10.82;5.40;;;;;;;21.04;83.97;100524.59;4992000;28;20030;-48
2023/10/13 06:47:43;;;;;;;11.57;5.43;;;;;;;21.20;83.19;100517.84;4991588;28;20033;-47
2023/10/13 06:50:15;;;;;;;11.38;5.30;;;;;;;21.13;83.28;100529.56;4992010;28;20740;-47
2023/10/13 06:52:45;;;;;;;11.45;5.50;;;;;;;21.30;83.41;100529.84;4990309;28;20093;-49
2023/10/13 06:55:17;;;;;;;11.00;5.55;;;;;;;21.23;83.65;100507.13;4991479;28;20425;-47
2023/10/13 06:57:46;;;;;;;11.35;5.30;;;;;;;21.02;84.41;100519.34;4991408;28;20031;-49
2023/10/13 07:00:19;;;;;;;9.63;5.40;;;;;;;21.43;83.00;100514.34;4990480;28;20092;-47
2023/10/13 07:02:46;;;;;;;9.98;4.55;;;;;;;21.45;82.76;100512.53;4992152;28;20447;-45
2023/10/13 07:05:13;;;;;;;8.85;4.70;;;;;;;21.54;83.03;100506.84;4994894;28;20088;-47
2023/10/13 07:07:39;;;;;;;8.93;4.43;;;;;;;21.54;82.59;100506.84;4996172;28;20065;-50
2023/10/13 07:10:11;;;;;;;8.82;4.10;;;;;;;21.10;84.53;100523.50;4991767;28;20078;-48
2023/10/13 07:12:38;;;;;;;8.27;3.92;;;;;;;21.42;83.51;100509.97;4991217;28;20034;-47
2023/10/13 07:15:27;;;;;;;8.50;4.00;;;;;;;21.66;81.85;100511.69;4991725;28;20721;-48
2023/10/13 07:17:54;;;;;;;10.48;3.72;;;;;;;21.79;81.80;100509.44;4990740;28;20035;-47
2023/10/13 07:20:33;;;;;;;8.27;3.55;;;;;;;21.79;81.88;100505.00;4991121;28;20042;-48
2023/10/13 07:23:03;;;;;;;9.45;3.58;;;;;;;21.51;82.99;100483.13;4991185;28;20449;-46
2023/10/13 07:25:37;;;;;;;10.63;4.15;;;;;;;21.75;81.74;100489.28;4990931;28;20564;-46
2023/10/13 07:28:03;;;;;;;11.57;3.60;;;;;;;21.83;81.17;100487.19;4991061;28;20046;-48
2023/10/13 07:30:31;;;;;;;13.05;3.65;;;;;;;21.91;81.25;100494.84;4990524;28;20162;-44
2023/10/13 07:32:59;;;;;;;12.48;3.70;;;;;;;21.77;80.85;100485.63;4991239;28;20030;-48
2023/10/13 07:35:26;;;;;;;10.27;3.42;;;;;;;22.01;80.67;100490.94;4990673;28;20125;-46
2023/10/13 07:37:55;;;;;;;9.85;3.63;;;;;;;22.03;80.46;100481.97;4991193;28;20444;-46
2023/10/13 07:40:39;;;;;;;11.93;3.40;;;;;;;21.85;80.72;100477.38;4990759;28;20489;-50
2023/10/13 07:43:08;;;;;;;8.02;3.08;;;;;;;22.02;79.70;100488.22;4991802;28;20100;-51
2023/10/13 07:45:36;;;;;;;8.20;3.53;;;;;;;22.15;78.77;100480.63;4990447;28;20104;-45
2023/10/13 07:48:12;;;;;;;11.52;3.55;;;;;;;22.23;78.37;100471.44;4990927;28;20038;-46
2023/10/13 07:50:41;;;;;;;8.85;3.38;;;;;;;22.08;78.30;100480.00;4991255;28;20154;-48
2023/10/13 07:53:20;;;;;;;9.65;3.42;;;;;;;21.94;77.93;100474.38;4991029;28;20035;-45
2023/10/13 07:55:55;;;;;;;10.50;3.38;;;;;;;22.14;77.43;100469.13;4991182;28;20073;-49
2023/10/13 07:58:24;;;;;;;7.25;3.30;;;;;;;22.23;77.26;100463.47;4990875;28;20045;-48
2023/10/13 08:00:55;;;;;;;8.55;3.33;;;;;;;22.26;76.21;100457.19;4990985;28;20042;-46
2023/10/13 08:03:43;;;;;;;10.68;3.50;;;;;;;22.40;76.44;100476.03;4990210;28;20030;-48
2023/10/13 08:08:38;;;;;;;10.68;3.28;;;;;;;22.60;75.58;100435.34;4989573;28;20034;-48
2023/10/13 08:13:58;;;;;;;9.38;3.47;;;;;;;22.36;75.59;100457.66;4990524;28;20037;-48
2023/10/13 08:16:30;;;;;;;13.05;3.47;;;;;;;22.36;75.47;100434.59;4990557;28;20477;-45
2023/10/13 08:18:55;;;;;;;13.23;3.58;;;;;;;22.49;74.47;100450.91;4990617;28;20018;-45
2023/10/13 08:21:24;;;;;;;9.80;3.45;;;;;;;22.20;75.18;100450.28;4990724;28;20117;-46
2023/10/13 08:27:34;;;;;;;8.68;3.53;;;;;;;22.53;74.30;100431.22;4990172;28;20038;-47
2023/10/13 08:34:38;;;;;;;12.90;3.38;;;;;;;22.19;75.12;100413.22;4989511;28;20496;-50
2023/10/13 08:40:20;;;;;;;10.38;3.63;;;;;;;22.37;72.90;100428.38;4990911;28;20042;-51
2023/10/13 08:48:07;;;;;;;12.50;3.40;;;;;;;22.51;73.05;100410.03;4991954;28;20054;-47
2023/10/13 08:50:52;;;;;;;13.70;3.67;;;;;;;22.47;72.16;100423.53;4990013;28;20050;-47
2023/10/13 08:59:05;;;;;;;15.13;3.72;;;;;;;22.36;72.56;100408.03;4999651;28;20049;-50
2023/10/13 09:12:17;;;;;;;15.88;3.70;;;;;;;22.88;69.02;100400.47;4989598;28;20177;-45
2023/10/13 09:14:56;;;;;;;15.93;3.90;;;;;;;23.17;68.52;100396.53;4990015;28;20043;-46
2023/10/13 09:17:38;;;;;;;10.77;3.50;;;;;;;23.42;67.88;100384.66;4989777;28;20034;-46
2023/10/13 09:20:42;;;;;;;12.45;3.63;;;;;;;23.35;67.95;100390.34;4990964;28;20043;-47
2023/10/13 09:25:34;;;;;;;11.35;3.97;;;;;;;23.48;67.16;100370.25;4993177;28;20050;-51
2023/10/13 09:28:02;;;;;;;8.55;3.47;;;;;;;23.55;66.67;100373.47;4993585;28;20408;-46
2023/10/13 09:30:31;;;;;;;10.70;3.70;;;;;;;23.57;66.35;100364.47;4993348;28;20042;-49
2023/10/13 09:33:04;;;;;;;11.25;3.88;;;;;;;23.64;66.27;100363.25;4993847;28;20093;-47
2023/10/13 09:35:33;;;;;;;13.95;4.13;;;;;;;23.59;64.76;100353.78;4993492;28;20604;-43
2023/10/13 09:38:02;;;;;;;13.57;3.88;;;;;;;23.47;65.78;100341.91;4994055;28;20050;-45
2023/10/13 09:43:07;;;;;;;14.63;3.88;;;;;;;23.69;65.10;100355.91;4993922;28;20066;-44
2023/10/13 09:45:40;;;;;;;;;;;;;;;23.78;64.37;100343.94;4993712;28;20049;-45
2023/10/13 09:48:16;;;;;;;13.95;4.00;;;;;;;24.07;63.93;100345.16;5008637;28;19917;-48
2023/10/13 09:50:45;;;;;;;17.63;3.97;;;;;;;24.02;63.75;100336.53;4992771;28;20471;-48
2023/10/13 09:53:13;;;;;;;12.95;4.00;;;;;;;24.11;63.49;100342.25;4992577;28;20042;-44
2023/10/13 09:55:48;;;;;;;16.00;4.25;;;;;;;24.10;63.50;100329.00;4992866;28;20034;-50
2023/10/13 09:58:17;;;;;;;12.55;3.75;;;;;;;24.22;63.23;100336.41;4992420;28;20038;-48
2023/10/13 10:01:20;;;;;;;15.32;4.18;;;;;;;24.09;62.97;100328.13;4993131;28;20073;-45
2023/10/13 10:06:59;;;;;;;15.68;4.30;;;;;;;24.36;62.92;100312.59;4958959;28;20070;-47
2023/10/13 10:09:37;;;;;;;12.23;4.32;;;;;;;24.56;62.80;100320.41;4992153;28;20041;-46
2023/10/13 10:12:42;;;;;;;16.50;4.85;;;;;;;24.10;63.48;100315.69;4992734;28;20133;-47
2023/10/13 10:15:13;;;;;;;14.57;4.68;;;;;;;24.36;61.93;100309.06;4992618;28;20034;-49
2023/10/13 10:17:43;;;;;;;11.15;4.25;;;;;;;24.70;61.71;100316.13;4992620;28;20044;-45
2023/10/13 10:20:19;;;;;;;13.70;4.07;;;;;;;25.24;60.74;100312.28;4992999;28;20130;-47
2023/10/13 10:23:01;;;;;;;15.35;4.75;;;;;;;24.99;60.17;100315.44;4992018;28;20396;-44
2023/10/13 10:25:34;;;;;;;15.07;4.75;;;;;;;25.22;59.01;100315.03;4992015;28;20061;-47
2023/10/13 10:28:05;;;;;;;16.52;4.65;;;;;;;24.80;60.24;100296.88;4992443;28;20045;-51
2023/10/13 10:30:33;;;;;;;20.05;4.70;;;;;;;24.96;58.97;100311.13;4991862;28;20121;-52
2023/10/13 10:32:59;;;;;;;17.20;5.10;;;;;;;25.09;58.82;100297.13;4991515;28;20505;-49
2023/10/13 10:35:34;;;;;;;18.00;4.88;;;;;;;24.88;59.17;100301.81;4991962;28;20126;-48
2023/10/13 10:41:06;;;;;;;18.85;5.07;;;;;;;24.68;59.39;100294.88;4992230;28;20046;-48
2023/10/13 10:43:46;;;;;;;15.07;4.80;;;;;;;24.45;59.58;100282.81;4991518;28;20050;-44
2023/10/13 10:46:12;;;;;;;17.38;5.13;;;;;;;24.65;59.71;100297.69;4992469;28;20034;-45
2023/10/13 10:48:42;;;;;;;16.00;5.53;;;;;;;24.79;59.60;100302.28;4992712;28;20425;-48
2023/10/13 10:51:21;;;;;;;14.85;5.30;;;;;;;24.77;59.77;100305.03;4992381;28;20085;-49
2023/10/13 10:53:51;;;;;;;20.38;5.47;;;;;;;25.04;59.27;100292.06;4991762;28;20692;-51
2023/10/13 10:56:36;;;;;;;16.00;5.45;;;;;;;24.90;58.42;100276.81;4991800;28;20496;-50
2023/10/13 10:59:04;;;;;;;22.25;5.80;;;;;;;24.68;59.30;100278.91;4992000;28;20027;-50
2023/10/13 11:01:33;;;;;;;19.25;5.10;;;;;;;24.93;59.23;100270.44;4991382;28;20527;-51
2023/10/13 11:04:23;;;;;;;16.02;5.32;;;;;;;24.69;59.55;100266.44;4991755;28;20401;-49
2023/10/13 11:06:56;;;;;;;16.38;5.55;;;;;;;24.73;59.21;100262.66;4992762;28;20027;-46
2023/10/13 11:09:36;;;;;;;17.73;5.47;;;;;;;24.94;58.45;100262.38;4992795;28;20035;-49
2023/10/13 11:12:14;;;;;;;17.40;5.70;;;;;;;24.94;57.96;100269.50;4993699;28;20043;-47
2023/10/13 11:14:40;;;;;;;19.02;5.95;;;;;;;24.75;59.06;100250.97;4991894;28;20041;-50
2023/10/13 11:17:13;;;;;;;15.73;5.65;;;;;;;24.82;58.57;100246.16;4989862;28;20121;-47
2023/10/13 11:19:40;;;;;;;20.17;5.90;;;;;;;25.09;57.16;100251.78;4992618;28;20121;-47
2023/10/13 11:22:32;;;;;;;20.27;5.90;;;;;;;24.95;55.71;100233.88;4991532;28;20038;-44
2023/10/13 11:24:59;;;;;;;19.30;6.10;;;;;;;24.78;56.66;100241.91;4992414;28;20092;-46
2023/10/13 11:30:25;;;;;;;23.17;6.43;;;;;;;25.34;54.51;100242.28;4990817;28;20046;-46
2023/10/13 11:33:28;;;;;;;18.90;6.30;;;;;;;24.25;57.20;100238.56;4991338;28;20038;-46
2023/10/13 11:38:26;;;;;;;26.52;6.22;;;;;;;24.63;56.03;100240.97;4992059;28;20493;-46
2023/10/13 11:48:36;;;;;;;18.50;6.07;;;;;;;24.66;56.08;100256.78;4990326;28;20038;-45
2023/10/13 11:51:08;;;;;;;20.83;6.32;;;;;;;24.97;55.60;100251.53;4991018;28;20558;-50
2023/10/13 11:53:35;;;;;;;23.70;6.45;;;;;;;25.05;55.29;100259.97;4990408;28;20374;-49
2023/10/13 11:56:00;;;;;;;25.08;6.38;;;;;;;24.69;55.63;100261.09;4991358;28;20034;-50
2023/10/13 11:58:28;;;;;;;22.75;6.20;;;;;;;24.90;55.73;100263.47;4990517;28;20050;-47
2023/10/13 12:01:01;;;;;;;20.38;6.35;;;;;;;24.83;56.91;100264.72;4991006;28;20034;-46
2023/10/13 12:08:54;;;;;;;20.45;6.18;;;;;;;24.71;56.21;100248.53;4990679;28;20105;-48
2023/10/13 12:11:31;;;;;;;20.45;6.35;;;;;;;24.40;56.42;100230.66;4990195;28;20038;-49
2023/10/13 12:13:57;;;;;;;24.27;6.68;;;;;;;24.81;56.38;100247.97;4990856;28;20034;-50
2023/10/13 12:16:23;;;;;;;18.55;6.70;;;;;;;24.66;56.72;100235.47;4990252;28;20741;-46
2023/10/13 12:18:53;;;;;;;19.65;6.18;;;;;;;24.76;56.04;100239.38;4991278;28;20038;-48
2023/10/13 12:21:21;;;;;;;18.80;6.53;;;;;;;25.03;55.58;100239.66;4990571;28;20069;-45
2023/10/13 12:23:47;;;;;;;21.55;7.03;;;;;;;24.99;55.97;100235.44;4990631;28;20034;-47
2023/10/13 12:26:19;;;;;;;20.27;6.57;;;;;;;24.53;57.38;100221.06;4991281;28;20121;-44
2023/10/13 12:28:51;;;;;;;22.85;6.95;;;;;;;24.85;56.28;100230.84;4991239;28;20065;-46
2023/10/13 12:31:17;;;;;;;19.10;6.45;;;;;;;24.95;56.16;100224.06;4990627;28;20042;-46
2023/10/13 12:33:47;;;;;;;19.95;6.45;;;;;;;24.44;58.30;100232.25;4990186;28;20038;-46
2023/10/13 12:52:16;;;;;;;20.23;6.70;;;;;;;24.03;63.62;100215.78;4989737;28;20034;-54
2023/10/13 12:57:30;;;;;;;19.05;6.90;;;;;;;24.01;63.19;100205.19;4993964;28;20045;-46
2023/10/13 12:59:55;;;;;;;17.30;6.40;;;;;;;23.96;62.70;100201.06;5009271;28;20038;-47
2023/10/13 13:02:27;;;;;;;17.95;6.43;;;;;;;23.98;62.36;100192.03;4993549;28;20050;-47
2023/10/13 13:05:02;;;;;;;16.75;6.88;;;;;;;24.24;62.93;100214.66;4994441;28;20035;-46
2023/10/13 13:07:30;;;;;;;21.40;6.68;;;;;;;24.15;63.19;100223.94;4993445;28;20097;-46
2023/10/13 13:09:58;;;;;;;16.70;6.30;;;;;;;24.30;62.70;100224.13;4994184;28;20104;-47
2023/10/13 13:12:24;;;;;;;19.42;6.78;;;;;;;23.96;63.79;100225.88;4993424;28;20092;-51
2023/10/13 13:14:54;;;;;;;17.52;6.38;;;;;;;24.02;63.70;100227.38;4994090;28;20112;-49
2023/10/13 13:17:23;;;;;;;16.40;6.80;;;;;;;23.85;64.99;100225.56;4993818;28;20081;-50
2023/10/13 13:19:48;;;;;;;20.90;6.43;;;;;;;23.93;63.82;100201.19;4993920;28;20087;-52
2023/10/13 13:22:13;;;;;;;24.27;6.30;;;;;;;23.82;63.93;100207.09;4993239;28;20096;-46
2023/10/13 13:24:46;;;;;;;17.63;6.47;;;;;;;24.05;64.55;100204.09;4993357;28;20148;-48
2023/10/13 13:27:19;;;;;;;20.20;6.65;;;;;;;24.24;63.08;100209.34;4991687;28;20039;-50
2023/10/13 13:29:45;;;;;;;21.45;6.85;;;;;;;24.44;62.45;100213.59;4993326;28;20520;-49
2023/10/13 13:32:23;;;;;;;18.52;6.40;;;;;;;24.00;63.23;100219.44;4993506;28;20046;-52
2023/10/13 13:35:03;;;;;;;25.20;7.13;;;;;;;23.94;64.26;100238.41;4993309;28;20085;-51
2023/10/13 13:37:29;;;;;;;25.38;6.88;;;;;;;24.03;63.92;100229.91;4992934;28;20038;-47
2023/10/13 13:39:54;;;;;;;22.35;6.65;;;;;;;;;;4993331;28;20113;-47
2023/10/13 13:42:20;;;;;;;20.98;6.97;;;;;;;24.10;63.56;100234.00;4992441;28;20049;-49
2023/10/13 13:44:48;;;;;;;20.08;6.43;;;;;;;23.96;64.10;100230.34;4993110;28;20117;-49
2023/10/13 13:47:14;;;;;;;19.85;7.05;;;;;;;24.04;64.37;100238.78;4992587;28;20073;-47
2023/10/13 13:49:40;;;;;;;21.52;7.10;;;;;;;24.06;64.68;100252.88;4993145;28;20041;-50
2023/10/13 13:52:09;;;;;;;18.98;6.90;;;;;;;23.76;67.03;100257.97;4993033;28;20121;-48
2023/10/13 13:54:34;;;;;;;18.48;6.22;;;;;;;23.14;71.44;100263.69;4992453;28;20419;-46
2023/10/13 13:57:00;;;;;;;15.00;5.70;;;;;;;22.84;72.71;100258.91;4992812;28;20035;-46
2023/10/13 13:59:25;;;;;;;17.80;5.22;;;;;;;22.70;74.89;100263.94;4992260;28;20038;-46
2023/10/13 14:01:52;;;;;;;15.40;4.82;;;;;;;22.64;75.58;100258.91;4992949;28;20342;-45
2023/10/13 14:04:18;;;;;;;16.75;4.72;;;;;;;22.28;77.96;100272.06;4992239;28;20038;-48
2023/10/13 14:06:44;;;;;;;15.85;4.60;;;;;;;22.05;79.87;100269.56;4992792;28;20034;-45
2023/10/13 14:09:32;;;;;;;18.00;4.45;;;;;;;22.31;79.15;100281.69;4992878;28;20038;-51
2023/10/13 14:14:50;;;;;;;13.57;4.72;;;;;;;22.01;80.92;100257.34;4992353;28;20096;-45
2023/10/13 14:17:16;;;;;;;14.85;4.10;;;;;;;22.10;80.59;100272.88;4992401;28;20030;-45
2023/10/13 14:19:43;;;;;;;11.68;3.90;;;;;;;22.10;80.65;100267.56;4992827;28;20537;-45
2023/10/13 14:22:11;;;;;;;11.13;3.10;;;;;;;21.96;81.52;100270.81;4992383;28;20038;-46
2023/10/13 14:24:43;;;;;;;9.90;2.83;;;;;;;21.50;83.07;100249.75;4993203;28;20113;-46
2023/10/13 14:27:15;;;;;;;11.38;2.45;;;;;;;21.78;82.23;100256.50;4992971;28;20112;-47
2023/10/13 14:29:42;;;;;;;8.82;2.30;;;;;;;21.96;81.15;100269.94;4993267;28;20034;-46
2023/10/13 14:32:17;;;;;;;10.73;1.90;;;;;;;21.41;83.61;100253.66;4992637;28;20093;-48
2023/10/13 14:34:45;;;;;;;9.57;2.00;;;;;;;21.47;84.09;100250.75;4992038;28;20638;-49
2023/10/13 14:37:14;;;;;;;11.30;2.10;;;;;;;21.83;81.96;100243.88;4992249;28;20038;-46
2023/10/13 14:39:42;;;;;;;9.55;1.80;;;;;;;21.43;83.65;100241.19;4992301;28;20030;-48
2023/10/13 14:42:08;;;;;;;13.90;2.72;;;;;;;21.76;82.20;100269.00;4992222;28;20042;-52
2023/10/13 14:44:34;;;;;;;11.93;2.80;;;;;;;21.46;84.15;100259.66;4990231;28;20412;-45
2023/10/13 14:47:00;;;;;;;14.73;3.30;;;;;;;21.53;83.90;100261.09;4991995;28;20515;-46
2023/10/13 14:49:25;;;;;;;13.15;3.38;;;;;;;21.51;83.98;100231.16;4991657;28;20124;-45
2023/10/13 14:51:51;;;;;;;13.27;3.38;;;;;;;21.69;83.41;100224.19;4993071;28;20465;-45
2023/10/13 14:54:16;;;;;;;14.95;3.50;;;;;;;21.93;82.76;100230.25;4990579;28;20039;-51
2023/10/13 14:56:42;;;;;;;11.25;3.42;;;;;;;21.79;82.73;100222.88;4991411;28;20038;-45
2023/10/13 14:59:16;;;;;;;15.13;4.13;;;;;;;21.99;82.52;100219.38;4992276;28;20038;-45
2023/10/13 15:01:42;;;;;;;14.60;3.95;;;;;;;22.04;82.29;100214.75;4991682;28;20064;-46
2023/10/13 15:04:07;;;;;;;19.60;4.03;;;;;;;21.81;82.84;100205.97;4991887;28;20054;-46
2023/10/13 15:06:32;;;;;;;14.75;4.65;;;;;;;22.01;82.01;100212.25;4991999;28;20031;-48
2023/10/13 15:08:59;;;;;;;17.08;4.38;;;;;;;21.74;83.55;100203.63;4992302;28;20042;-45